Aérodrome :
LOGIN :

S'inscrire | Disclaimer

   EN    FR    IT 

 










Légende :    VFR   VFR Marginal   IFR   IFR Intensif   IFR Très Intensif
Visi : 
Plafond : 
>= 8 km
>= 3000ft
5 à 8 km
1000 à 3000 ft
1500m à 5 km
500 à 1000 ft
800 à 1500m
200 à 500 ft
< 800m
< 200 ft
Symboles :   Orages  Brouillard  Fortes neiges  Fortes précipitations  Vent > 20 kt
SIGMETs :   Divers  Orages  Givrage  Turbulence  Onde Orograph.  Cendres Volcan.






- Altitude de l'aérodrome : 1989 ft
- Code IATA : KLV


LKKV - Karlovy Vary

DERNIER METAR :
  • 200400Z 31002KT 8000 BKN003 OVC006 02/01 Q1016

METARs EXPIRÉS :
  • 200300Z 30002KT 9999 OVC028 02/02 Q1016
  • 200200Z 00000KT 9999 BKN016 BKN029 02/02 Q1016

TAF TAF LKKV
Valide du 20 à 00h jusqu'au 21 à 06h UTC


192300Z 2000/2106 VRB02KT 7000 BKN015
TEMPO 2000/2018 2500 -RADZ BR BKN007
PROB30
TEMPO 2003/2008 1200 BR BKN003
BECMG 2010/2012 09006KT
BECMG 2021/2100 2000 BR BKN005
TEMPO 2100/2106 0700 -RADZ FG BKN002



MET'MAP, la Météo Aéronautique d'un coup d'oeil ! - Copyright ORBIFLY Décembre 2007 - Disclaimer

ORBIFLY MET'MAP TEAM :

Programmation & Développement : Alexandra Zaïnal
Conception & Développement : Baudouin d'Aumeries
Co-Programmation & Développement : Marc-Olivier Méhu
Soutien technique & logistique : Manuel Goepfert

Contact : metmap@orbifly.com




SOURCES & CREDITS :

   NOAA